createdAt,value
2023-08-23T00:00:02.115Z,18.80
2023-08-23T00:02:50.220Z,18.80
2023-08-23T00:05:38.246Z,18.70
2023-08-23T00:08:26.257Z,18.70
2023-08-23T00:11:14.301Z,18.70
2023-08-23T00:14:03.889Z,18.60
2023-08-23T00:16:51.920Z,18.50
2023-08-23T00:19:40.128Z,18.50
2023-08-23T00:22:28.217Z,18.40
2023-08-23T00:25:16.324Z,18.40
2023-08-23T00:28:13.099Z,18.20
2023-08-23T00:31:03.508Z,18.40
2023-08-23T00:33:51.549Z,18.40
2023-08-23T00:36:39.585Z,18.70
2023-08-23T00:39:27.608Z,18.50
2023-08-23T00:42:15.603Z,18.50
2023-08-23T00:45:03.738Z,18.40
2023-08-23T00:47:53.176Z,18.70
2023-08-23T00:50:42.906Z,18.50
2023-08-23T00:53:31.031Z,18.40
2023-08-23T00:56:19.109Z,18.30
2023-08-23T00:59:09.485Z,18.20
2023-08-23T01:01:58.390Z,18.10
2023-08-23T01:04:47.842Z,18.20
2023-08-23T01:07:44.972Z,18.10
2023-08-23T01:10:43.349Z,18.00
2023-08-23T01:13:35.940Z,18.00
2023-08-23T01:16:25.150Z,18.00
2023-08-23T01:19:37.534Z,18.00
2023-08-23T01:22:31.860Z,17.90
2023-08-23T01:25:21.998Z,17.90
2023-08-23T01:28:10.066Z,17.80
2023-08-23T01:31:02.142Z,17.80
2023-08-23T01:33:56.363Z,17.80
2023-08-23T01:36:45.113Z,17.70
2023-08-23T01:39:34.503Z,17.70
2023-08-23T01:42:24.846Z,18.20
2023-08-23T01:45:13.083Z,18.00
2023-08-23T01:48:01.342Z,17.80
2023-08-23T01:50:50.186Z,17.70
2023-08-23T01:53:38.294Z,17.60
2023-08-23T01:56:26.298Z,17.60
2023-08-23T01:59:15.676Z,17.50
2023-08-23T02:02:03.679Z,17.50
2023-08-23T02:04:51.729Z,17.50
2023-08-23T02:07:39.802Z,17.40
2023-08-23T02:10:27.821Z,17.40
2023-08-23T02:13:15.953Z,17.50
2023-08-23T02:16:05.956Z,17.40
2023-08-23T02:18:54.031Z,17.40
2023-08-23T02:21:42.056Z,17.40
2023-08-23T02:24:30.124Z,17.30
2023-08-23T02:27:18.150Z,17.40
2023-08-23T02:30:07.375Z,17.30
2023-08-23T02:32:56.827Z,17.30
2023-08-23T02:35:45.556Z,17.40
2023-08-23T02:38:33.599Z,17.30
2023-08-23T02:41:21.628Z,17.30
2023-08-23T02:44:09.648Z,17.20
2023-08-23T02:46:57.726Z,17.20
2023-08-23T02:49:47.152Z,17.20
2023-08-23T02:52:35.800Z,17.20
2023-08-23T02:55:24.066Z,17.20
2023-08-23T02:58:12.085Z,17.30
2023-08-23T03:01:00.158Z,17.30
2023-08-23T03:03:48.189Z,17.30
2023-08-23T03:06:37.546Z,17.20
2023-08-23T03:09:25.612Z,17.10
2023-08-23T03:12:13.644Z,17.00
2023-08-23T03:15:01.674Z,17.00
2023-08-23T03:17:50.065Z,17.00
2023-08-23T03:20:38.335Z,16.90
2023-08-23T03:23:27.948Z,16.90
2023-08-23T03:26:16.041Z,16.80
2023-08-23T03:29:04.323Z,16.80
2023-08-23T03:31:52.472Z,16.80
2023-08-23T03:34:40.593Z,16.80
2023-08-23T03:37:28.663Z,16.70
2023-08-23T03:40:18.279Z,16.70
2023-08-23T03:43:06.718Z,16.60
2023-08-23T03:45:54.769Z,16.50
2023-08-23T03:48:42.827Z,16.50
2023-08-23T03:51:30.972Z,16.50
2023-08-23T03:54:21.857Z,16.50
2023-08-23T03:57:11.360Z,16.50
2023-08-23T03:59:59.911Z,16.40
2023-08-23T04:02:48.637Z,16.40
2023-08-23T04:05:41.923Z,16.40
2023-08-23T04:08:29.970Z,16.50
2023-08-23T04:11:17.949Z,16.30
2023-08-23T04:14:07.732Z,16.30
2023-08-23T04:16:55.830Z,16.30
2023-08-23T04:19:43.885Z,16.30
2023-08-23T04:22:32.525Z,16.20
2023-08-23T04:25:21.344Z,16.20
2023-08-23T04:28:09.383Z,16.20
2023-08-23T04:31:03.173Z,16.40
2023-08-23T04:33:51.249Z,16.40
2023-08-23T04:36:39.368Z,16.30
2023-08-23T04:39:29.211Z,16.30
2023-08-23T04:42:17.967Z,16.20
2023-08-23T04:45:06.957Z,16.20
2023-08-23T04:47:56.565Z,16.20
2023-08-23T04:50:44.643Z,16.20
2023-08-23T04:53:32.688Z,16.20
2023-08-23T04:56:20.670Z,16.20
2023-08-23T04:59:08.664Z,16.30
2023-08-23T05:01:56.809Z,16.30
2023-08-23T05:04:46.470Z,16.40
2023-08-23T05:07:36.455Z,16.40
2023-08-23T05:10:24.556Z,16.40
2023-08-23T05:13:12.593Z,16.50
2023-08-23T05:16:00.744Z,16.40
2023-08-23T05:18:48.804Z,16.60
2023-08-23T05:21:38.316Z,16.60
2023-08-23T05:24:26.887Z,16.60
2023-08-23T05:27:14.931Z,16.60
2023-08-23T05:30:05.088Z,16.60
2023-08-23T05:32:53.126Z,16.70
2023-08-23T05:35:42.035Z,16.60
2023-08-23T05:38:31.891Z,16.70
2023-08-23T05:41:19.894Z,16.70
2023-08-23T05:44:07.959Z,16.80
2023-08-23T05:46:56.041Z,16.90
2023-08-23T05:49:44.494Z,16.90
2023-08-23T05:52:32.552Z,16.90
2023-08-23T05:55:21.900Z,17.00
2023-08-23T05:58:09.924Z,17.00
2023-08-23T06:00:58.122Z,17.20
2023-08-23T06:03:46.230Z,17.10
2023-08-23T06:06:34.519Z,17.10
2023-08-23T06:09:22.601Z,17.20
2023-08-23T06:12:12.052Z,17.20
2023-08-23T06:15:00.184Z,17.20
2023-08-23T06:17:48.477Z,17.30
2023-08-23T06:20:36.859Z,17.70
2023-08-23T06:23:24.911Z,17.60
2023-08-23T06:26:13.093Z,17.60
2023-08-23T06:29:02.447Z,17.60
2023-08-23T06:31:50.566Z,17.70
2023-08-23T06:34:40.933Z,17.70
2023-08-23T06:37:29.995Z,17.80
2023-08-23T06:40:18.192Z,17.80
2023-08-23T06:43:06.456Z,17.90
2023-08-23T06:45:55.806Z,18.00
2023-08-23T06:48:44.096Z,18.10
2023-08-23T06:51:32.138Z,18.20
2023-08-23T06:54:20.313Z,18.30
2023-08-23T06:57:08.321Z,18.30
2023-08-23T06:59:56.562Z,18.40
2023-08-23T07:02:46.206Z,18.50
2023-08-23T07:05:36.028Z,18.60
2023-08-23T07:08:24.041Z,18.70
2023-08-23T07:11:12.427Z,18.80
2023-08-23T07:14:00.443Z,18.90
2023-08-23T07:16:48.542Z,19.00
2023-08-23T07:19:38.064Z,19.30
2023-08-23T07:22:26.091Z,19.30
2023-08-23T07:25:14.097Z,19.30
2023-08-23T07:28:02.172Z,19.30
2023-08-23T07:30:51.694Z,19.40
2023-08-23T07:33:40.117Z,19.50
2023-08-23T07:36:31.067Z,19.60
2023-08-23T07:39:19.535Z,19.70
2023-08-23T07:42:07.705Z,19.70
2023-08-23T07:44:56.065Z,19.80
2023-08-23T07:47:44.119Z,19.90
2023-08-23T07:50:32.279Z,20.00
2023-08-23T07:53:21.767Z,20.10
2023-08-23T07:56:09.896Z,20.20
2023-08-23T07:58:57.921Z,20.30
2023-08-23T08:01:46.069Z,20.40
2023-08-23T08:04:34.893Z,20.50
2023-08-23T08:07:55.578Z,20.60
2023-08-23T08:10:32.399Z,20.70
2023-08-23T08:13:20.405Z,20.90
2023-08-23T08:16:09.165Z,21.00
2023-08-23T08:18:57.293Z,21.00
2023-08-23T08:21:45.332Z,21.00
2023-08-23T08:24:33.454Z,21.00
2023-08-23T08:27:22.882Z,21.00
2023-08-23T08:30:11.731Z,21.20
2023-08-23T08:32:59.872Z,21.30
2023-08-23T08:35:48.009Z,21.30
2023-08-23T08:38:36.127Z,21.40
2023-08-23T08:41:24.238Z,21.50
2023-08-23T08:44:14.098Z,21.70
2023-08-23T08:47:02.599Z,21.70
2023-08-23T08:49:50.782Z,21.90
2023-08-23T08:52:42.511Z,21.90
2023-08-23T08:55:31.539Z,22.00
2023-08-23T08:58:21.379Z,22.00
2023-08-23T09:01:12.599Z,22.00
2023-08-23T09:04:00.974Z,22.10
2023-08-23T09:06:50.062Z,22.20
2023-08-23T09:09:38.899Z,22.30
2023-08-23T09:12:26.976Z,22.40
2023-08-23T09:15:15.010Z,22.90
2023-08-23T09:18:05.148Z,22.90
2023-08-23T09:20:53.540Z,22.80
2023-08-23T09:23:41.997Z,22.90
2023-08-23T09:26:30.047Z,23.00
2023-08-23T09:29:18.186Z,23.00
2023-08-23T09:32:07.474Z,23.10
2023-08-23T09:34:57.385Z,23.20
2023-08-23T09:37:46.498Z,23.20
2023-08-23T09:40:35.292Z,23.20
2023-08-23T09:43:25.118Z,23.20
2023-08-23T09:46:14.871Z,23.10
2023-08-23T09:49:05.471Z,23.10
2023-08-23T09:51:56.190Z,23.10
2023-08-23T09:55:00.362Z,23.20
2023-08-23T09:58:01.385Z,23.20
2023-08-23T10:00:50.743Z,23.30
2023-08-23T10:03:39.517Z,23.50
2023-08-23T10:06:29.215Z,23.60
2023-08-23T10:09:19.112Z,23.90
2023-08-23T10:12:09.969Z,23.70
2023-08-23T10:15:01.433Z,23.70
2023-08-23T10:17:50.835Z,23.80
2023-08-23T10:20:39.898Z,23.90
2023-08-23T10:23:28.657Z,23.90
2023-08-23T10:26:22.799Z,23.80
2023-08-23T10:29:11.644Z,23.80
2023-08-23T10:32:00.137Z,23.80
2023-08-23T10:34:48.214Z,24.00
2023-08-23T10:37:36.344Z,24.20
2023-08-23T10:40:24.392Z,24.20
2023-08-23T10:43:14.875Z,24.30
2023-08-23T10:46:07.599Z,24.40
2023-08-23T10:48:56.292Z,24.50
2023-08-23T10:51:44.860Z,24.60
2023-08-23T10:54:33.226Z,24.70
2023-08-23T10:57:21.357Z,24.80
2023-08-23T11:00:12.292Z,24.90
2023-08-23T11:03:00.839Z,25.00
2023-08-23T11:05:49.003Z,25.10
2023-08-23T11:08:38.226Z,25.10
2023-08-23T11:11:29.807Z,25.10
2023-08-23T11:14:18.246Z,25.60
2023-08-23T11:17:08.545Z,25.30
2023-08-23T11:19:57.256Z,25.10
2023-08-23T11:22:46.112Z,25.00
2023-08-23T11:25:34.282Z,24.80
2023-08-23T11:28:22.405Z,24.80
2023-08-23T11:31:10.563Z,24.80
2023-08-23T11:34:06.472Z,24.70
2023-08-23T11:36:54.605Z,24.80
2023-08-23T11:39:42.690Z,24.70
2023-08-23T11:42:31.335Z,24.90
2023-08-23T11:45:19.392Z,25.10
2023-08-23T11:48:09.105Z,25.30
2023-08-23T11:50:59.931Z,25.60
2023-08-23T11:53:52.564Z,25.60
2023-08-23T11:56:42.025Z,25.60
2023-08-23T11:59:30.108Z,25.70
2023-08-23T12:02:18.138Z,25.50
2023-08-23T12:05:06.765Z,25.30
2023-08-23T12:07:56.350Z,25.20
2023-08-23T12:10:44.660Z,25.10
2023-08-23T12:13:32.953Z,25.10
2023-08-23T12:16:21.032Z,25.00
2023-08-23T12:19:25.359Z,25.00
2023-08-23T12:22:17.173Z,25.00
2023-08-23T12:25:08.284Z,24.90
2023-08-23T12:27:56.392Z,25.00
2023-08-23T12:30:44.794Z,25.10
2023-08-23T12:33:32.796Z,25.30
2023-08-23T12:36:21.754Z,25.30
2023-08-23T12:39:09.699Z,25.50
2023-08-23T12:41:59.099Z,25.60
2023-08-23T12:44:47.173Z,25.60
2023-08-23T12:47:35.204Z,25.60
2023-08-23T12:50:23.597Z,25.60
2023-08-23T12:53:14.837Z,26.10
2023-08-23T12:56:02.969Z,25.90
2023-08-23T12:58:52.441Z,25.90
2023-08-23T13:01:40.562Z,25.90
2023-08-23T13:04:28.777Z,25.90
2023-08-23T13:07:16.854Z,26.00
2023-08-23T13:10:05.276Z,26.10
2023-08-23T13:12:53.338Z,26.20
2023-08-23T13:15:42.747Z,26.20
2023-08-23T13:18:31.392Z,26.20
2023-08-23T13:21:19.773Z,26.20
2023-08-23T13:24:07.954Z,26.30
2023-08-23T13:26:56.560Z,26.40
2023-08-23T13:29:45.594Z,26.50
2023-08-23T13:32:35.109Z,26.60
2023-08-23T13:35:24.006Z,26.60
2023-08-23T13:38:14.048Z,26.70
2023-08-23T13:41:02.065Z,26.60
2023-08-23T13:43:50.073Z,26.60
2023-08-23T13:46:38.227Z,26.70
2023-08-23T13:49:27.937Z,26.80
2023-08-23T13:52:16.984Z,27.00
2023-08-23T13:55:05.898Z,27.00
2023-08-23T13:57:53.994Z,27.00
2023-08-23T14:00:42.140Z,27.00
2023-08-23T14:03:30.269Z,27.00
2023-08-23T14:06:19.744Z,27.00
2023-08-23T14:09:09.591Z,27.10
2023-08-23T14:11:58.392Z,27.20
2023-08-23T14:14:46.449Z,27.70
2023-08-23T14:17:34.485Z,27.70
2023-08-23T14:20:22.474Z,27.60
2023-08-23T14:23:11.994Z,27.70
2023-08-23T14:26:04.751Z,28.20
2023-08-23T14:28:52.902Z,28.00
2023-08-23T14:31:41.100Z,27.80
2023-08-23T14:34:29.130Z,27.70
2023-08-23T14:37:17.235Z,27.80
2023-08-23T14:40:08.266Z,27.80
2023-08-23T14:42:56.404Z,27.80
2023-08-23T14:45:45.197Z,27.90
2023-08-23T14:48:33.249Z,27.90
2023-08-23T14:51:21.305Z,27.90
2023-08-23T14:54:09.362Z,28.00
2023-08-23T14:56:58.672Z,28.10
2023-08-23T14:59:48.862Z,28.60
2023-08-23T15:02:36.947Z,28.40
2023-08-23T15:05:25.172Z,28.20
2023-08-23T15:08:13.196Z,28.30
2023-08-23T15:11:01.625Z,28.80
2023-08-23T15:13:51.611Z,28.50
2023-08-23T15:16:39.651Z,28.40
2023-08-23T15:19:27.728Z,28.40
2023-08-23T15:22:15.754Z,28.40
2023-08-23T15:25:03.899Z,28.40
2023-08-23T15:27:53.084Z,28.40
2023-08-23T15:30:42.640Z,28.50
2023-08-23T15:33:30.637Z,28.50
2023-08-23T15:36:18.634Z,28.60
2023-08-23T15:39:06.712Z,28.60
2023-08-23T15:41:56.080Z,29.10
2023-08-23T15:44:44.685Z,28.90
2023-08-23T15:47:34.157Z,28.90
2023-08-23T15:50:22.605Z,28.90
2023-08-23T15:53:10.623Z,29.40
2023-08-23T15:55:59.267Z,29.20
2023-08-23T15:58:47.455Z,29.00
2023-08-23T16:01:35.767Z,28.90
2023-08-23T16:04:25.378Z,28.70
2023-08-23T16:07:13.439Z,28.70
2023-08-23T16:10:02.284Z,28.60
2023-08-23T16:12:52.386Z,28.60
2023-08-23T16:15:40.544Z,28.60
2023-08-23T16:18:29.202Z,28.70
2023-08-23T16:21:18.655Z,28.70
2023-08-23T16:24:07.259Z,29.30
2023-08-23T16:26:55.317Z,29.10
2023-08-23T16:29:43.614Z,28.90
2023-08-23T16:32:31.814Z,28.80
2023-08-23T16:35:19.941Z,28.70
2023-08-23T16:38:11.517Z,28.60
2023-08-23T16:40:59.976Z,28.50
2023-08-23T16:43:49.758Z,28.50
2023-08-23T16:46:37.767Z,28.50
2023-08-23T16:49:25.887Z,28.50
2023-08-23T16:52:14.138Z,28.60
2023-08-23T16:55:05.965Z,28.60
2023-08-23T16:57:54.030Z,28.60
2023-08-23T17:00:42.312Z,28.50
2023-08-23T17:03:31.282Z,28.50
2023-08-23T17:06:19.560Z,28.50
2023-08-23T17:09:08.382Z,28.40
2023-08-23T17:11:57.756Z,28.40
2023-08-23T17:14:45.765Z,28.40
2023-08-23T17:17:33.788Z,28.40
2023-08-23T17:20:21.947Z,28.40
2023-08-23T17:23:10.642Z,28.40
2023-08-23T17:25:59.171Z,28.30
2023-08-23T17:28:48.529Z,28.20
2023-08-23T17:31:36.569Z,28.20
2023-08-23T17:34:24.965Z,28.10
2023-08-23T17:37:12.931Z,28.00
2023-08-23T17:40:01.009Z,28.20
2023-08-23T17:42:49.247Z,28.10
2023-08-23T17:45:38.819Z,27.90
2023-08-23T17:48:26.858Z,27.80
2023-08-23T17:51:15.048Z,27.80
2023-08-23T17:54:04.101Z,27.60
2023-08-23T17:56:52.242Z,27.60
2023-08-23T17:59:40.230Z,27.40
2023-08-23T18:02:29.624Z,27.30
2023-08-23T18:05:18.105Z,27.20
2023-08-23T18:08:06.335Z,27.10
2023-08-23T18:10:56.269Z,26.90
2023-08-23T18:13:44.253Z,26.70
2023-08-23T18:16:32.616Z,26.50
2023-08-23T18:19:22.053Z,26.30
2023-08-23T18:22:10.310Z,26.10
2023-08-23T18:24:58.738Z,25.90
2023-08-23T18:27:46.740Z,26.20
2023-08-23T18:30:37.718Z,26.00
2023-08-23T18:33:27.008Z,25.80
2023-08-23T18:36:16.458Z,25.60
2023-08-23T18:39:05.005Z,25.40
2023-08-23T18:41:54.274Z,25.30
2023-08-23T18:44:42.302Z,25.20
2023-08-23T18:47:30.461Z,25.00
2023-08-23T18:50:19.871Z,25.00
2023-08-23T18:53:09.456Z,24.80
2023-08-23T18:55:57.441Z,25.20
2023-08-23T18:58:45.466Z,24.90
2023-08-23T19:01:34.027Z,24.80
2023-08-23T19:04:22.334Z,24.70
2023-08-23T19:07:12.591Z,24.50
2023-08-23T19:10:02.351Z,24.40
2023-08-23T19:12:50.504Z,24.40
2023-08-23T19:15:40.041Z,24.20
2023-08-23T19:18:28.083Z,24.20
2023-08-23T19:21:16.205Z,24.00
2023-08-23T19:24:07.417Z,23.90
2023-08-23T19:26:57.110Z,23.80
2023-08-23T19:29:45.605Z,23.70
2023-08-23T19:32:33.803Z,23.70
2023-08-23T19:35:23.390Z,23.60
2023-08-23T19:38:12.288Z,23.50
2023-08-23T19:41:00.338Z,23.40
2023-08-23T19:43:49.792Z,23.40
2023-08-23T19:46:38.127Z,23.30
2023-08-23T19:49:26.143Z,23.20
2023-08-23T19:52:14.247Z,23.10
2023-08-23T19:55:02.463Z,23.10
2023-08-23T19:57:51.932Z,23.10
2023-08-23T20:00:42.616Z,23.10
2023-08-23T20:03:30.788Z,23.00
2023-08-23T20:06:19.011Z,22.90
2023-08-23T20:09:07.135Z,22.80
2023-08-23T20:11:55.599Z,22.70
2023-08-23T20:14:43.765Z,23.00
2023-08-23T20:17:33.654Z,22.90
2023-08-23T20:20:21.988Z,22.70
2023-08-23T20:23:10.316Z,22.70
2023-08-23T20:26:00.160Z,23.10
2023-08-23T20:28:48.135Z,22.80
2023-08-23T20:31:36.492Z,22.60
2023-08-23T20:34:26.857Z,22.40
2023-08-23T20:37:14.870Z,22.40
2023-08-23T20:40:03.748Z,22.20
2023-08-23T20:42:51.879Z,22.20
2023-08-23T20:45:40.386Z,22.10
2023-08-23T20:48:28.782Z,22.10
2023-08-23T20:51:18.174Z,22.00
2023-08-23T20:54:06.772Z,22.00
2023-08-23T20:56:55.043Z,22.40
2023-08-23T20:59:43.094Z,22.20
2023-08-23T21:02:31.151Z,22.00
2023-08-23T21:05:19.248Z,21.90
2023-08-23T21:08:08.747Z,21.80
2023-08-23T21:11:01.133Z,21.70
2023-08-23T21:13:49.216Z,21.60
2023-08-23T21:16:37.258Z,21.50
2023-08-23T21:19:25.393Z,21.50
2023-08-23T21:22:13.550Z,21.40
2023-08-23T21:25:02.978Z,21.40
2023-08-23T21:27:51.378Z,21.40
2023-08-23T21:30:40.679Z,21.30
2023-08-23T21:33:28.823Z,21.30
2023-08-23T21:36:16.847Z,21.30
2023-08-23T21:39:05.600Z,21.30
2023-08-23T21:41:58.631Z,21.20
2023-08-23T21:44:46.667Z,21.20
2023-08-23T21:47:35.031Z,21.10
2023-08-23T21:50:23.121Z,21.00
2023-08-23T21:53:11.104Z,20.90
2023-08-23T21:55:59.374Z,20.90
2023-08-23T21:58:48.728Z,20.80
2023-08-23T22:01:36.937Z,20.80
2023-08-23T22:04:25.049Z,20.70
2023-08-23T22:07:13.206Z,20.60
2023-08-23T22:10:01.388Z,20.60
2023-08-23T22:12:49.432Z,20.50
2023-08-23T22:15:38.919Z,20.50
2023-08-23T22:18:27.377Z,20.50
2023-08-23T22:21:15.514Z,20.40
2023-08-23T22:24:03.635Z,20.80
2023-08-23T22:26:51.703Z,20.60
2023-08-23T22:29:39.720Z,20.40
2023-08-23T22:32:29.100Z,20.30
2023-08-23T22:35:17.337Z,20.30
2023-08-23T22:38:06.492Z,20.20
2023-08-23T22:40:56.353Z,20.20
2023-08-23T22:43:46.279Z,20.10
2023-08-23T22:46:34.381Z,20.10
2023-08-23T22:49:23.738Z,20.00
2023-08-23T22:52:11.820Z,20.00
2023-08-23T22:54:59.819Z,20.00
2023-08-23T22:57:48.244Z,19.90
2023-08-23T23:00:36.600Z,19.90
2023-08-23T23:03:25.017Z,19.90
2023-08-23T23:06:14.382Z,19.80
2023-08-23T23:09:02.641Z,19.70
2023-08-23T23:11:50.642Z,19.70
2023-08-23T23:14:39.088Z,19.60
2023-08-23T23:17:27.149Z,19.60
2023-08-23T23:20:16.557Z,19.60
2023-08-23T23:23:06.211Z,19.50
2023-08-23T23:25:54.833Z,19.50
2023-08-23T23:28:44.238Z,19.50
2023-08-23T23:31:32.402Z,19.50
2023-08-23T23:34:20.609Z,19.40
2023-08-23T23:37:08.661Z,19.40
2023-08-23T23:39:58.643Z,19.40
2023-08-23T23:42:46.848Z,19.40
2023-08-23T23:45:36.243Z,19.40
2023-08-23T23:48:24.272Z,19.30
2023-08-23T23:51:12.432Z,19.20
2023-08-23T23:54:00.576Z,19.20
2023-08-23T23:56:50.745Z,19.30
2023-08-23T23:59:38.784Z,19.20
